sensor_id;sensor_type;location;lat;lon;timestamp;P1;durP1;ratioP1;P2;durP2;ratioP2
21705;SDS011;11014;53.076;18.208;2023-08-31T00:01:57;9.50;;;3.40;;
21705;SDS011;11014;53.076;18.208;2023-08-31T00:04:27;5.57;;;3.65;;
21705;SDS011;11014;53.076;18.208;2023-08-31T00:06:56;3.88;;;3.25;;
21705;SDS011;11014;53.076;18.208;2023-08-31T00:09:24;4.03;;;3.40;;
21705;SDS011;11014;53.076;18.208;2023-08-31T00:11:53;4.55;;;3.55;;
21705;SDS011;11014;53.076;18.208;2023-08-31T00:14:23;5.95;;;3.75;;
21705;SDS011;11014;53.076;18.208;2023-08-31T00:16:52;5.72;;;3.58;;
21705;SDS011;11014;53.076;18.208;2023-08-31T00:19:22;7.65;;;3.80;;
21705;SDS011;11014;53.076;18.208;2023-08-31T00:21:50;6.38;;;3.80;;
21705;SDS011;11014;53.076;18.208;2023-08-31T00:24:19;5.07;;;3.85;;
21705;SDS011;11014;53.076;18.208;2023-08-31T00:26:49;5.55;;;3.83;;
21705;SDS011;11014;53.076;18.208;2023-08-31T00:29:20;6.47;;;3.72;;
21705;SDS011;11014;53.076;18.208;2023-08-31T00:31:50;5.25;;;3.92;;
21705;SDS011;11014;53.076;18.208;2023-08-31T00:34:19;6.60;;;4.00;;
21705;SDS011;11014;53.076;18.208;2023-08-31T00:36:48;6.57;;;4.38;;
21705;SDS011;11014;53.076;18.208;2023-08-31T00:39:17;5.57;;;4.10;;
21705;SDS011;11014;53.076;18.208;2023-08-31T00:41:49;4.70;;;3.60;;
21705;SDS011;11014;53.076;18.208;2023-08-31T00:44:18;5.50;;;3.80;;
21705;SDS011;11014;53.076;18.208;2023-08-31T00:46:48;5.57;;;3.63;;
21705;SDS011;11014;53.076;18.208;2023-08-31T00:49:17;4.63;;;3.65;;
21705;SDS011;11014;53.076;18.208;2023-08-31T00:51:46;5.35;;;3.70;;
21705;SDS011;11014;53.076;18.208;2023-08-31T00:54:19;7.40;;;4.05;;
21705;SDS011;11014;53.076;18.208;2023-08-31T00:59:24;5.75;;;3.92;;
21705;SDS011;11014;53.076;18.208;2023-08-31T01:01:59;7.30;;;4.07;;
21705;SDS011;11014;53.076;18.208;2023-08-31T01:10:32;7.88;;;4.18;;
21705;SDS011;11014;53.076;18.208;2023-08-31T01:16:00;9.25;;;4.28;;
21705;SDS011;11014;53.076;18.208;2023-08-31T01:18:33;7.57;;;4.85;;
21705;SDS011;11014;53.076;18.208;2023-08-31T01:21:27;5.88;;;4.47;;
21705;SDS011;11014;53.076;18.208;2023-08-31T01:26:36;4.68;;;4.18;;
21705;SDS011;11014;53.076;18.208;2023-08-31T01:29:29;6.45;;;4.80;;
21705;SDS011;11014;53.076;18.208;2023-08-31T01:32:00;7.20;;;4.78;;
21705;SDS011;11014;53.076;18.208;2023-08-31T01:34:29;7.18;;;5.32;;
21705;SDS011;11014;53.076;18.208;2023-08-31T01:37:00;10.18;;;5.50;;
21705;SDS011;11014;53.076;18.208;2023-08-31T01:39:37;6.22;;;5.18;;
21705;SDS011;11014;53.076;18.208;2023-08-31T01:42:15;10.48;;;5.18;;
21705;SDS011;11014;53.076;18.208;2023-08-31T01:44:45;8.93;;;5.53;;
21705;SDS011;11014;53.076;18.208;2023-08-31T01:47:17;7.55;;;5.07;;
21705;SDS011;11014;53.076;18.208;2023-08-31T01:49:47;7.80;;;6.10;;
21705;SDS011;11014;53.076;18.208;2023-08-31T01:52:17;8.73;;;5.35;;
21705;SDS011;11014;53.076;18.208;2023-08-31T01:54:45;7.57;;;5.05;;
21705;SDS011;11014;53.076;18.208;2023-08-31T01:57:22;7.30;;;5.60;;
21705;SDS011;11014;53.076;18.208;2023-08-31T02:00:13;6.13;;;5.25;;
21705;SDS011;11014;53.076;18.208;2023-08-31T02:02:43;7.13;;;5.25;;
21705;SDS011;11014;53.076;18.208;2023-08-31T02:05:13;5.50;;;4.93;;
21705;SDS011;11014;53.076;18.208;2023-08-31T02:07:44;8.52;;;5.03;;
21705;SDS011;11014;53.076;18.208;2023-08-31T02:10:16;9.57;;;5.40;;
21705;SDS011;11014;53.076;18.208;2023-08-31T02:12:46;8.13;;;4.95;;
21705;SDS011;11014;53.076;18.208;2023-08-31T02:15:15;10.15;;;5.63;;
21705;SDS011;11014;53.076;18.208;2023-08-31T02:17:44;9.88;;;5.53;;
21705;SDS011;11014;53.076;18.208;2023-08-31T02:23:04;6.60;;;5.13;;
21705;SDS011;11014;53.076;18.208;2023-08-31T02:25:34;8.00;;;5.65;;
21705;SDS011;11014;53.076;18.208;2023-08-31T02:28:03;7.03;;;5.20;;
21705;SDS011;11014;53.076;18.208;2023-08-31T02:30:31;8.20;;;4.82;;
21705;SDS011;11014;53.076;18.208;2023-08-31T02:33:00;6.57;;;4.88;;
21705;SDS011;11014;53.076;18.208;2023-08-31T02:35:29;10.43;;;4.70;;
21705;SDS011;11014;53.076;18.208;2023-08-31T02:37:59;5.07;;;4.10;;
21705;SDS011;11014;53.076;18.208;2023-08-31T02:40:28;7.13;;;5.15;;
21705;SDS011;11014;53.076;18.208;2023-08-31T02:42:57;7.18;;;4.75;;
21705;SDS011;11014;53.076;18.208;2023-08-31T02:45:25;6.28;;;4.72;;
21705;SDS011;11014;53.076;18.208;2023-08-31T02:47:54;7.72;;;4.55;;
21705;SDS011;11014;53.076;18.208;2023-08-31T02:50:25;9.38;;;4.43;;
21705;SDS011;11014;53.076;18.208;2023-08-31T02:52:54;8.02;;;4.38;;
21705;SDS011;11014;53.076;18.208;2023-08-31T02:55:23;7.95;;;4.70;;
21705;SDS011;11014;53.076;18.208;2023-08-31T02:57:52;7.70;;;4.30;;
21705;SDS011;11014;53.076;18.208;2023-08-31T03:00:21;8.48;;;4.40;;
21705;SDS011;11014;53.076;18.208;2023-08-31T03:02:53;8.27;;;4.32;;
21705;SDS011;11014;53.076;18.208;2023-08-31T03:05:23;8.48;;;4.25;;
21705;SDS011;11014;53.076;18.208;2023-08-31T03:07:52;6.32;;;4.93;;
21705;SDS011;11014;53.076;18.208;2023-08-31T03:10:20;6.28;;;4.07;;
21705;SDS011;11014;53.076;18.208;2023-08-31T03:12:51;6.57;;;4.28;;
21705;SDS011;11014;53.076;18.208;2023-08-31T03:15:20;5.25;;;4.05;;
21705;SDS011;11014;53.076;18.208;2023-08-31T03:17:48;5.45;;;4.18;;
21705;SDS011;11014;53.076;18.208;2023-08-31T03:20:17;5.00;;;4.00;;
21705;SDS011;11014;53.076;18.208;2023-08-31T03:22:47;6.30;;;4.00;;
21705;SDS011;11014;53.076;18.208;2023-08-31T03:25:16;6.82;;;4.07;;
21705;SDS011;11014;53.076;18.208;2023-08-31T03:27:45;6.82;;;3.78;;
21705;SDS011;11014;53.076;18.208;2023-08-31T03:30:13;6.32;;;3.50;;
21705;SDS011;11014;53.076;18.208;2023-08-31T03:32:42;5.20;;;3.65;;
21705;SDS011;11014;53.076;18.208;2023-08-31T03:35:11;10.52;;;4.22;;
21705;SDS011;11014;53.076;18.208;2023-08-31T03:37:41;5.70;;;4.03;;
21705;SDS011;11014;53.076;18.208;2023-08-31T03:40:09;6.18;;;4.05;;
21705;SDS011;11014;53.076;18.208;2023-08-31T03:42:41;5.93;;;4.20;;
21705;SDS011;11014;53.076;18.208;2023-08-31T03:45:13;6.50;;;3.55;;
21705;SDS011;11014;53.076;18.208;2023-08-31T03:47:41;5.72;;;3.70;;
21705;SDS011;11014;53.076;18.208;2023-08-31T03:50:10;4.80;;;3.65;;
21705;SDS011;11014;53.076;18.208;2023-08-31T03:52:40;5.28;;;3.90;;
21705;SDS011;11014;53.076;18.208;2023-08-31T03:55:09;4.00;;;3.60;;
21705;SDS011;11014;53.076;18.208;2023-08-31T03:57:38;5.70;;;4.20;;
21705;SDS011;11014;53.076;18.208;2023-08-31T04:00:16;8.30;;;4.50;;
21705;SDS011;11014;53.076;18.208;2023-08-31T04:02:45;5.53;;;4.13;;
21705;SDS011;11014;53.076;18.208;2023-08-31T04:05:19;7.22;;;4.00;;
21705;SDS011;11014;53.076;18.208;2023-08-31T04:07:47;4.43;;;3.85;;
21705;SDS011;11014;53.076;18.208;2023-08-31T04:10:16;7.03;;;4.32;;
21705;SDS011;11014;53.076;18.208;2023-08-31T04:12:45;6.20;;;4.30;;
21705;SDS011;11014;53.076;18.208;2023-08-31T04:15:16;5.75;;;4.30;;
21705;SDS011;11014;53.076;18.208;2023-08-31T04:17:45;8.75;;;4.32;;
21705;SDS011;11014;53.076;18.208;2023-08-31T04:20:14;7.78;;;4.70;;
21705;SDS011;11014;53.076;18.208;2023-08-31T04:22:43;6.25;;;4.30;;
21705;SDS011;11014;53.076;18.208;2023-08-31T04:25:11;7.22;;;4.50;;
21705;SDS011;11014;53.076;18.208;2023-08-31T04:27:40;6.45;;;4.82;;
21705;SDS011;11014;53.076;18.208;2023-08-31T04:30:08;8.63;;;4.93;;
21705;SDS011;11014;53.076;18.208;2023-08-31T04:32:37;7.45;;;5.28;;
21705;SDS011;11014;53.076;18.208;2023-08-31T04:35:05;7.68;;;4.90;;
21705;SDS011;11014;53.076;18.208;2023-08-31T04:37:37;10.40;;;5.40;;
21705;SDS011;11014;53.076;18.208;2023-08-31T04:40:05;6.72;;;4.93;;
21705;SDS011;11014;53.076;18.208;2023-08-31T04:42:35;6.53;;;5.13;;
21705;SDS011;11014;53.076;18.208;2023-08-31T04:45:04;7.97;;;5.30;;
21705;SDS011;11014;53.076;18.208;2023-08-31T04:47:33;9.77;;;5.35;;
21705;SDS011;11014;53.076;18.208;2023-08-31T04:50:02;8.63;;;5.78;;
21705;SDS011;11014;53.076;18.208;2023-08-31T04:52:32;8.02;;;5.43;;
21705;SDS011;11014;53.076;18.208;2023-08-31T04:55:02;7.63;;;4.90;;
21705;SDS011;11014;53.076;18.208;2023-08-31T04:57:35;5.70;;;5.20;;
21705;SDS011;11014;53.076;18.208;2023-08-31T05:00:04;8.35;;;5.63;;
21705;SDS011;11014;53.076;18.208;2023-08-31T05:02:33;7.85;;;5.35;;
21705;SDS011;11014;53.076;18.208;2023-08-31T05:05:02;7.10;;;5.10;;
21705;SDS011;11014;53.076;18.208;2023-08-31T05:07:31;6.93;;;5.32;;
21705;SDS011;11014;53.076;18.208;2023-08-31T05:10:00;6.07;;;5.25;;
21705;SDS011;11014;53.076;18.208;2023-08-31T05:12:28;9.93;;;5.32;;
21705;SDS011;11014;53.076;18.208;2023-08-31T05:14:57;10.02;;;5.55;;
21705;SDS011;11014;53.076;18.208;2023-08-31T05:17:25;7.40;;;5.60;;
21705;SDS011;11014;53.076;18.208;2023-08-31T05:19:54;7.80;;;5.60;;
21705;SDS011;11014;53.076;18.208;2023-08-31T05:22:22;7.63;;;5.07;;
21705;SDS011;11014;53.076;18.208;2023-08-31T05:24:51;8.98;;;5.70;;
21705;SDS011;11014;53.076;18.208;2023-08-31T05:27:19;9.13;;;5.70;;
21705;SDS011;11014;53.076;18.208;2023-08-31T05:29:48;6.47;;;5.57;;
21705;SDS011;11014;53.076;18.208;2023-08-31T05:32:17;6.90;;;5.45;;
21705;SDS011;11014;53.076;18.208;2023-08-31T05:34:46;6.15;;;5.28;;
21705;SDS011;11014;53.076;18.208;2023-08-31T05:37:14;7.60;;;5.70;;
21705;SDS011;11014;53.076;18.208;2023-08-31T05:39:47;8.60;;;5.65;;
21705;SDS011;11014;53.076;18.208;2023-08-31T05:42:17;6.35;;;5.50;;
21705;SDS011;11014;53.076;18.208;2023-08-31T05:44:46;8.45;;;5.65;;
21705;SDS011;11014;53.076;18.208;2023-08-31T05:47:14;6.00;;;5.40;;
21705;SDS011;11014;53.076;18.208;2023-08-31T05:49:42;7.85;;;5.60;;
21705;SDS011;11014;53.076;18.208;2023-08-31T05:52:11;8.80;;;5.68;;
21705;SDS011;11014;53.076;18.208;2023-08-31T05:54:39;7.90;;;5.57;;
21705;SDS011;11014;53.076;18.208;2023-08-31T05:57:08;6.38;;;5.07;;
21705;SDS011;11014;53.076;18.208;2023-08-31T05:59:37;7.85;;;5.57;;
21705;SDS011;11014;53.076;18.208;2023-08-31T06:02:05;8.73;;;5.78;;
21705;SDS011;11014;53.076;18.208;2023-08-31T06:04:36;8.57;;;5.93;;
21705;SDS011;11014;53.076;18.208;2023-08-31T06:07:05;6.47;;;5.70;;
21705;SDS011;11014;53.076;18.208;2023-08-31T06:09:33;6.90;;;5.90;;
21705;SDS011;11014;53.076;18.208;2023-08-31T06:12:02;7.25;;;5.65;;
21705;SDS011;11014;53.076;18.208;2023-08-31T06:14:31;10.15;;;6.00;;
21705;SDS011;11014;53.076;18.208;2023-08-31T06:16:59;7.68;;;6.03;;
21705;SDS011;11014;53.076;18.208;2023-08-31T06:19:31;6.70;;;5.65;;
21705;SDS011;11014;53.076;18.208;2023-08-31T06:21:59;8.15;;;6.28;;
21705;SDS011;11014;53.076;18.208;2023-08-31T06:24:28;6.85;;;5.68;;
21705;SDS011;11014;53.076;18.208;2023-08-31T06:26:57;6.97;;;6.03;;
21705;SDS011;11014;53.076;18.208;2023-08-31T06:29:26;7.47;;;5.60;;
21705;SDS011;11014;53.076;18.208;2023-08-31T06:31:55;9.02;;;5.47;;
21705;SDS011;11014;53.076;18.208;2023-08-31T06:34:23;9.65;;;5.68;;
21705;SDS011;11014;53.076;18.208;2023-08-31T06:36:52;7.13;;;4.93;;
21705;SDS011;11014;53.076;18.208;2023-08-31T06:39:20;8.93;;;5.35;;
21705;SDS011;11014;53.076;18.208;2023-08-31T06:41:49;6.55;;;5.20;;
21705;SDS011;11014;53.076;18.208;2023-08-31T06:44:18;9.82;;;5.38;;
21705;SDS011;11014;53.076;18.208;2023-08-31T06:46:46;5.88;;;5.00;;
21705;SDS011;11014;53.076;18.208;2023-08-31T06:49:15;7.75;;;5.10;;
21705;SDS011;11014;53.076;18.208;2023-08-31T06:51:44;6.85;;;4.97;;
21705;SDS011;11014;53.076;18.208;2023-08-31T06:54:12;6.70;;;5.38;;
21705;SDS011;11014;53.076;18.208;2023-08-31T06:56:41;5.95;;;5.35;;
21705;SDS011;11014;53.076;18.208;2023-08-31T06:59:10;8.68;;;5.10;;
21705;SDS011;11014;53.076;18.208;2023-08-31T07:01:40;6.30;;;4.68;;
21705;SDS011;11014;53.076;18.208;2023-08-31T07:04:08;9.45;;;4.80;;
21705;SDS011;11014;53.076;18.208;2023-08-31T07:06:37;6.57;;;4.53;;
21705;SDS011;11014;53.076;18.208;2023-08-31T07:09:05;4.75;;;3.92;;
21705;SDS011;11014;53.076;18.208;2023-08-31T07:11:36;7.57;;;4.28;;
21705;SDS011;11014;53.076;18.208;2023-08-31T07:14:05;6.65;;;4.38;;
21705;SDS011;11014;53.076;18.208;2023-08-31T07:16:33;5.47;;;4.13;;
21705;SDS011;11014;53.076;18.208;2023-08-31T07:19:02;5.63;;;3.90;;
21705;SDS011;11014;53.076;18.208;2023-08-31T07:21:33;4.30;;;3.90;;
21705;SDS011;11014;53.076;18.208;2023-08-31T07:24:01;7.45;;;4.25;;
21705;SDS011;11014;53.076;18.208;2023-08-31T07:26:30;5.32;;;4.47;;
21705;SDS011;11014;53.076;18.208;2023-08-31T07:28:59;4.15;;;3.72;;
21705;SDS011;11014;53.076;18.208;2023-08-31T07:31:33;4.03;;;3.70;;
21705;SDS011;11014;53.076;18.208;2023-08-31T07:34:01;5.10;;;3.42;;
21705;SDS011;11014;53.076;18.208;2023-08-31T07:36:31;5.50;;;3.80;;
21705;SDS011;11014;53.076;18.208;2023-08-31T07:39:00;6.13;;;3.83;;
21705;SDS011;11014;53.076;18.208;2023-08-31T07:41:29;6.65;;;4.28;;
21705;SDS011;11014;53.076;18.208;2023-08-31T07:43:57;5.93;;;3.05;;
21705;SDS011;11014;53.076;18.208;2023-08-31T07:46:33;4.50;;;3.30;;
21705;SDS011;11014;53.076;18.208;2023-08-31T07:49:01;4.13;;;3.15;;
21705;SDS011;11014;53.076;18.208;2023-08-31T07:51:31;4.50;;;3.10;;
21705;SDS011;11014;53.076;18.208;2023-08-31T07:53:59;6.13;;;2.90;;
21705;SDS011;11014;53.076;18.208;2023-08-31T07:59:00;4.07;;;2.95;;
21705;SDS011;11014;53.076;18.208;2023-08-31T08:01:29;3.80;;;2.88;;
21705;SDS011;11014;53.076;18.208;2023-08-31T08:03:57;4.30;;;3.15;;
21705;SDS011;11014;53.076;18.208;2023-08-31T08:06:26;5.00;;;2.97;;
21705;SDS011;11014;53.076;18.208;2023-08-31T08:09:15;5.90;;;2.95;;
21705;SDS011;11014;53.076;18.208;2023-08-31T08:11:44;3.95;;;2.83;;
21705;SDS011;11014;53.076;18.208;2023-08-31T08:14:14;9.13;;;3.53;;
21705;SDS011;11014;53.076;18.208;2023-08-31T08:16:44;6.70;;;3.20;;
21705;SDS011;11014;53.076;18.208;2023-08-31T08:19:12;3.78;;;3.22;;
21705;SDS011;11014;53.076;18.208;2023-08-31T08:21:41;5.25;;;2.85;;
21705;SDS011;11014;53.076;18.208;2023-08-31T08:24:09;3.85;;;3.45;;
21705;SDS011;11014;53.076;18.208;2023-08-31T08:26:38;5.10;;;3.50;;
21705;SDS011;11014;53.076;18.208;2023-08-31T08:29:06;6.35;;;3.33;;
21705;SDS011;11014;53.076;18.208;2023-08-31T08:31:35;3.55;;;3.25;;
21705;SDS011;11014;53.076;18.208;2023-08-31T08:34:04;5.55;;;3.17;;
21705;SDS011;11014;53.076;18.208;2023-08-31T08:36:34;4.50;;;3.35;;
21705;SDS011;11014;53.076;18.208;2023-08-31T08:39:02;3.60;;;3.30;;
21705;SDS011;11014;53.076;18.208;2023-08-31T08:41:32;4.88;;;3.38;;
21705;SDS011;11014;53.076;18.208;2023-08-31T08:44:01;5.68;;;3.58;;
21705;SDS011;11014;53.076;18.208;2023-08-31T08:46:35;3.50;;;2.92;;
21705;SDS011;11014;53.076;18.208;2023-08-31T08:49:05;4.50;;;3.35;;
21705;SDS011;11014;53.076;18.208;2023-08-31T08:51:35;3.90;;;3.10;;
21705;SDS011;11014;53.076;18.208;2023-08-31T08:54:03;3.85;;;3.42;;
21705;SDS011;11014;53.076;18.208;2023-08-31T08:56:32;5.72;;;3.50;;
21705;SDS011;11014;53.076;18.208;2023-08-31T08:59:01;5.03;;;3.60;;
21705;SDS011;11014;53.076;18.208;2023-08-31T09:01:30;4.38;;;3.50;;
21705;SDS011;11014;53.076;18.208;2023-08-31T09:03:59;4.18;;;3.80;;
21705;SDS011;11014;53.076;18.208;2023-08-31T09:06:28;4.40;;;3.97;;
21705;SDS011;11014;53.076;18.208;2023-08-31T09:08:58;5.35;;;4.95;;
21705;SDS011;11014;53.076;18.208;2023-08-31T09:11:31;11.70;;;5.38;;
21705;SDS011;11014;53.076;18.208;2023-08-31T09:13:59;5.45;;;4.80;;
21705;SDS011;11014;53.076;18.208;2023-08-31T09:16:47;6.10;;;5.50;;
21705;SDS011;11014;53.076;18.208;2023-08-31T09:19:18;6.85;;;5.60;;
21705;SDS011;11014;53.076;18.208;2023-08-31T09:21:52;6.22;;;5.20;;
21705;SDS011;11014;53.076;18.208;2023-08-31T09:24:23;7.60;;;5.90;;
21705;SDS011;11014;53.076;18.208;2023-08-31T09:26:53;8.23;;;6.55;;
21705;SDS011;11014;53.076;18.208;2023-08-31T09:29:24;8.60;;;7.65;;
21705;SDS011;11014;53.076;18.208;2023-08-31T09:31:53;8.20;;;7.40;;
21705;SDS011;11014;53.076;18.208;2023-08-31T09:34:32;8.10;;;7.35;;
21705;SDS011;11014;53.076;18.208;2023-08-31T09:37:06;8.80;;;7.90;;
21705;SDS011;11014;53.076;18.208;2023-08-31T09:39:40;10.98;;;8.32;;
21705;SDS011;11014;53.076;18.208;2023-08-31T09:42:10;10.27;;;9.32;;
21705;SDS011;11014;53.076;18.208;2023-08-31T09:44:43;12.07;;;8.65;;
21705;SDS011;11014;53.076;18.208;2023-08-31T09:47:14;10.32;;;9.43;;
21705;SDS011;11014;53.076;18.208;2023-08-31T09:49:43;11.30;;;10.30;;
21705;SDS011;11014;53.076;18.208;2023-08-31T09:52:13;11.45;;;10.23;;
21705;SDS011;11014;53.076;18.208;2023-08-31T09:54:42;11.55;;;9.85;;
21705;SDS011;11014;53.076;18.208;2023-08-31T09:57:12;11.20;;;10.20;;
21705;SDS011;11014;53.076;18.208;2023-08-31T09:59:42;10.45;;;9.32;;
21705;SDS011;11014;53.076;18.208;2023-08-31T10:02:11;11.65;;;10.43;;
21705;SDS011;11014;53.076;18.208;2023-08-31T10:04:43;11.00;;;10.10;;
21705;SDS011;11014;53.076;18.208;2023-08-31T10:07:13;10.68;;;9.77;;
21705;SDS011;11014;53.076;18.208;2023-08-31T10:09:42;13.20;;;11.00;;
21705;SDS011;11014;53.076;18.208;2023-08-31T10:12:11;10.93;;;9.55;;
21705;SDS011;11014;53.076;18.208;2023-08-31T10:14:42;10.20;;;9.32;;
21705;SDS011;11014;53.076;18.208;2023-08-31T10:17:14;12.25;;;9.43;;
21705;SDS011;11014;53.076;18.208;2023-08-31T10:19:43;10.82;;;9.80;;
21705;SDS011;11014;53.076;18.208;2023-08-31T10:22:12;10.20;;;9.20;;
21705;SDS011;11014;53.076;18.208;2023-08-31T10:24:56;10.02;;;9.13;;
21705;SDS011;11014;53.076;18.208;2023-08-31T10:27:36;12.93;;;10.07;;
21705;SDS011;11014;53.076;18.208;2023-08-31T10:30:30;11.07;;;9.17;;
21705;SDS011;11014;53.076;18.208;2023-08-31T10:35:43;11.30;;;10.07;;
21705;SDS011;11014;53.076;18.208;2023-08-31T10:38:26;11.05;;;9.18;;
21705;SDS011;11014;53.076;18.208;2023-08-31T10:41:00;11.60;;;10.50;;
21705;SDS011;11014;53.076;18.208;2023-08-31T10:43:44;10.90;;;9.90;;
21705;SDS011;11014;53.076;18.208;2023-08-31T10:46:33;10.25;;;9.23;;
21705;SDS011;11014;53.076;18.208;2023-08-31T10:49:23;10.40;;;9.45;;
21705;SDS011;11014;53.076;18.208;2023-08-31T10:51:56;10.60;;;9.38;;
21705;SDS011;11014;53.076;18.208;2023-08-31T10:54:26;11.07;;;10.07;;
21705;SDS011;11014;53.076;18.208;2023-08-31T10:59:46;11.05;;;10.05;;
21705;SDS011;11014;53.076;18.208;2023-08-31T11:02:35;10.55;;;9.60;;
21705;SDS011;11014;53.076;18.208;2023-08-31T11:07:39;11.82;;;9.55;;
21705;SDS011;11014;53.076;18.208;2023-08-31T11:12:51;13.80;;;8.73;;
21705;SDS011;11014;53.076;18.208;2023-08-31T11:15:22;12.23;;;11.02;;
21705;SDS011;11014;53.076;18.208;2023-08-31T11:17:52;12.75;;;11.40;;
21705;SDS011;11014;53.076;18.208;2023-08-31T11:20:24;14.10;;;11.95;;
21705;SDS011;11014;53.076;18.208;2023-08-31T11:22:57;16.38;;;14.68;;
21705;SDS011;11014;53.076;18.208;2023-08-31T11:25:26;14.90;;;13.32;;
21705;SDS011;11014;53.076;18.208;2023-08-31T11:27:55;14.93;;;12.45;;
21705;SDS011;11014;53.076;18.208;2023-08-31T11:30:25;18.70;;;14.77;;
21705;SDS011;11014;53.076;18.208;2023-08-31T11:32:54;14.13;;;12.75;;
21705;SDS011;11014;53.076;18.208;2023-08-31T11:35:23;11.68;;;10.57;;
21705;SDS011;11014;53.076;18.208;2023-08-31T11:37:56;10.18;;;9.20;;
21705;SDS011;11014;53.076;18.208;2023-08-31T11:40:26;9.48;;;8.68;;
21705;SDS011;11014;53.076;18.208;2023-08-31T11:42:56;8.15;;;7.05;;
21705;SDS011;11014;53.076;18.208;2023-08-31T11:45:26;8.37;;;7.57;;
21705;SDS011;11014;53.076;18.208;2023-08-31T11:47:59;8.02;;;7.22;;
21705;SDS011;11014;53.076;18.208;2023-08-31T11:50:28;8.25;;;7.55;;
21705;SDS011;11014;53.076;18.208;2023-08-31T11:52:58;8.45;;;7.65;;
21705;SDS011;11014;53.076;18.208;2023-08-31T11:55:27;8.82;;;8.02;;
21705;SDS011;11014;53.076;18.208;2023-08-31T11:57:56;8.88;;;8.00;;
21705;SDS011;11014;53.076;18.208;2023-08-31T12:00:25;8.73;;;6.95;;
21705;SDS011;11014;53.076;18.208;2023-08-31T12:03:00;7.72;;;7.03;;
21705;SDS011;11014;53.076;18.208;2023-08-31T12:05:46;7.47;;;6.88;;
21705;SDS011;11014;53.076;18.208;2023-08-31T12:08:15;8.32;;;6.97;;
21705;SDS011;11014;53.076;18.208;2023-08-31T12:10:45;8.57;;;7.80;;
21705;SDS011;11014;53.076;18.208;2023-08-31T12:13:15;7.38;;;6.75;;
21705;SDS011;11014;53.076;18.208;2023-08-31T12:15:44;7.35;;;6.65;;
21705;SDS011;11014;53.076;18.208;2023-08-31T12:18:16;7.72;;;6.20;;
21705;SDS011;11014;53.076;18.208;2023-08-31T12:20:45;7.40;;;6.70;;
21705;SDS011;11014;53.076;18.208;2023-08-31T12:23:22;8.93;;;6.43;;
21705;SDS011;11014;53.076;18.208;2023-08-31T12:25:52;6.85;;;6.25;;
21705;SDS011;11014;53.076;18.208;2023-08-31T12:28:22;6.10;;;5.47;;
21705;SDS011;11014;53.076;18.208;2023-08-31T12:30:52;6.28;;;5.45;;
21705;SDS011;11014;53.076;18.208;2023-08-31T12:33:22;6.10;;;5.50;;
21705;SDS011;11014;53.076;18.208;2023-08-31T12:35:51;5.90;;;5.40;;
21705;SDS011;11014;53.076;18.208;2023-08-31T12:38:20;5.53;;;5.10;;
21705;SDS011;11014;53.076;18.208;2023-08-31T12:40:50;4.78;;;4.35;;
21705;SDS011;11014;53.076;18.208;2023-08-31T12:43:18;5.32;;;4.82;;
21705;SDS011;11014;53.076;18.208;2023-08-31T12:45:47;5.72;;;5.03;;
21705;SDS011;11014;53.076;18.208;2023-08-31T12:48:16;5.15;;;4.50;;
21705;SDS011;11014;53.076;18.208;2023-08-31T12:50:45;4.95;;;4.43;;
21705;SDS011;11014;53.076;18.208;2023-08-31T12:53:14;4.35;;;3.95;;
21705;SDS011;11014;53.076;18.208;2023-08-31T12:55:43;4.70;;;4.18;;
21705;SDS011;11014;53.076;18.208;2023-08-31T12:58:12;4.07;;;3.78;;
21705;SDS011;11014;53.076;18.208;2023-08-31T13:00:41;4.20;;;3.83;;
21705;SDS011;11014;53.076;18.208;2023-08-31T13:03:13;3.83;;;3.25;;
21705;SDS011;11014;53.076;18.208;2023-08-31T13:05:43;3.70;;;3.40;;
21705;SDS011;11014;53.076;18.208;2023-08-31T13:08:11;3.58;;;3.28;;
21705;SDS011;11014;53.076;18.208;2023-08-31T13:10:40;4.70;;;3.40;;
21705;SDS011;11014;53.076;18.208;2023-08-31T13:13:09;3.78;;;3.13;;
21705;SDS011;11014;53.076;18.208;2023-08-31T13:15:41;3.45;;;3.15;;
21705;SDS011;11014;53.076;18.208;2023-08-31T13:18:13;4.63;;;3.47;;
21705;SDS011;11014;53.076;18.208;2023-08-31T13:20:50;5.07;;;3.70;;
21705;SDS011;11014;53.076;18.208;2023-08-31T13:23:22;4.18;;;3.60;;
21705;SDS011;11014;53.076;18.208;2023-08-31T13:25:51;4.10;;;3.80;;
21705;SDS011;11014;53.076;18.208;2023-08-31T13:28:19;3.72;;;3.42;;
21705;SDS011;11014;53.076;18.208;2023-08-31T13:30:48;4.68;;;3.50;;
21705;SDS011;11014;53.076;18.208;2023-08-31T13:33:17;5.55;;;3.58;;
21705;SDS011;11014;53.076;18.208;2023-08-31T13:35:47;3.70;;;3.40;;
21705;SDS011;11014;53.076;18.208;2023-08-31T13:38:16;4.05;;;3.45;;
21705;SDS011;11014;53.076;18.208;2023-08-31T13:40:44;5.07;;;3.17;;
21705;SDS011;11014;53.076;18.208;2023-08-31T13:43:13;3.45;;;3.15;;
21705;SDS011;11014;53.076;18.208;2023-08-31T13:45:42;3.58;;;3.20;;
21705;SDS011;11014;53.076;18.208;2023-08-31T13:48:11;4.43;;;3.40;;
21705;SDS011;11014;53.076;18.208;2023-08-31T13:50:40;3.95;;;3.33;;
21705;SDS011;11014;53.076;18.208;2023-08-31T13:53:09;4.03;;;3.63;;
21705;SDS011;11014;53.076;18.208;2023-08-31T13:55:37;3.67;;;3.38;;
21705;SDS011;11014;53.076;18.208;2023-08-31T14:01:01;4.22;;;3.45;;
21705;SDS011;11014;53.076;18.208;2023-08-31T14:03:31;3.97;;;3.42;;
21705;SDS011;11014;53.076;18.208;2023-08-31T14:06:00;5.22;;;3.65;;
21705;SDS011;11014;53.076;18.208;2023-08-31T14:08:31;4.75;;;3.55;;
21705;SDS011;11014;53.076;18.208;2023-08-31T14:11:00;6.60;;;3.88;;
21705;SDS011;11014;53.076;18.208;2023-08-31T14:13:29;4.65;;;3.58;;
21705;SDS011;11014;53.076;18.208;2023-08-31T14:15:59;3.67;;;3.38;;
21705;SDS011;11014;53.076;18.208;2023-08-31T14:18:28;5.30;;;3.80;;
21705;SDS011;11014;53.076;18.208;2023-08-31T14:20:58;4.55;;;3.60;;
21705;SDS011;11014;53.076;18.208;2023-08-31T14:23:29;5.22;;;3.80;;
21705;SDS011;11014;53.076;18.208;2023-08-31T14:26:01;5.78;;;3.88;;
21705;SDS011;11014;53.076;18.208;2023-08-31T14:28:31;6.47;;;4.13;;
21705;SDS011;11014;53.076;18.208;2023-08-31T14:31:03;6.43;;;4.40;;
21705;SDS011;11014;53.076;18.208;2023-08-31T14:41:48;3.20;;;2.75;;
21705;SDS011;11014;53.076;18.208;2023-08-31T14:50:24;2.88;;;2.33;;
21705;SDS011;11014;53.076;18.208;2023-08-31T14:52:55;3.10;;;2.28;;
21705;SDS011;11014;53.076;18.208;2023-08-31T14:55:24;2.85;;;2.30;;
21705;SDS011;11014;53.076;18.208;2023-08-31T14:57:54;2.35;;;2.10;;
21705;SDS011;11014;53.076;18.208;2023-08-31T15:00:22;4.88;;;2.55;;
21705;SDS011;11014;53.076;18.208;2023-08-31T15:02:51;3.40;;;2.30;;
21705;SDS011;11014;53.076;18.208;2023-08-31T15:05:21;2.33;;;2.10;;
21705;SDS011;11014;53.076;18.208;2023-08-31T15:07:53;2.13;;;1.70;;
21705;SDS011;11014;53.076;18.208;2023-08-31T15:10:22;2.05;;;1.70;;
21705;SDS011;11014;53.076;18.208;2023-08-31T15:12:51;5.78;;;1.60;;
21705;SDS011;11014;53.076;18.208;2023-08-31T15:15:23;2.05;;;1.40;;
21705;SDS011;11014;53.076;18.208;2023-08-31T15:17:55;2.15;;;1.25;;
21705;SDS011;11014;53.076;18.208;2023-08-31T15:20:25;2.38;;;1.55;;
21705;SDS011;11014;53.076;18.208;2023-08-31T15:22:55;1.75;;;1.40;;
21705;SDS011;11014;53.076;18.208;2023-08-31T15:25:23;3.13;;;1.45;;
21705;SDS011;11014;53.076;18.208;2023-08-31T15:27:53;2.28;;;1.13;;
21705;SDS011;11014;53.076;18.208;2023-08-31T15:33:52;1.73;;;1.20;;
21705;SDS011;11014;53.076;18.208;2023-08-31T15:36:22;1.30;;;1.20;;
21705;SDS011;11014;53.076;18.208;2023-08-31T15:38:51;4.05;;;1.20;;
21705;SDS011;11014;53.076;18.208;2023-08-31T15:43:51;1.90;;;1.35;;